Time;durP1;ratioP1;P1;durP2;ratioP2;P2;SDS_P1;SDS_P2;PMS_P1;PMS_P2;Temp;Humidity;BMP_temperature;BMP_pressure;BME280_temperature;BME280_humidity;BME280_pressure;Samples;Min_cycle;Max_cycle;Signal;HPM_P1;HPM_P2
2022/11/02 00:03:40;;;;;;;6.37;4.03;;;;;;;21.43;61.55;100824.06;20987367;28;20763;-76
2022/11/02 00:13:41;;;;;;;5.90;3.90;;;;;;;21.42;61.03;100826.81;20991123;28;20044;-76
2022/11/02 00:23:43;;;;;;;6.72;3.70;;;;;;;21.44;61.59;100838.91;20985472;28;20044;-76
2022/11/02 00:33:43;;;;;;;4.43;3.33;;;;;;;21.44;61.39;100840.72;20987988;28;20044;-77
2022/11/02 00:43:44;;;;;;;5.18;3.53;;;;;;;21.42;61.12;100834.69;20989069;28;20048;-77
2022/11/02 00:53:44;;;;;;;4.97;3.63;;;;;;;21.42;61.11;100829.44;20990266;28;20380;-76
2022/11/02 01:03:44;;;;;;;5.15;3.60;;;;;;;21.40;61.09;100828.72;20984757;28;20059;-76
2022/11/02 01:13:45;;;;;;;4.82;3.40;;;;;;;21.39;60.92;100814.69;21000463;28;20047;-76
2022/11/02 01:23:46;;;;;;;3.83;3.10;;;;;;;21.37;61.17;100823.66;20984320;28;20130;-76
2022/11/02 01:33:46;;;;;;;4.90;3.60;;;;;;;21.37;61.21;100819.25;20983416;28;20116;-76
2022/11/02 01:43:50;;;;;;;4.65;3.47;;;;;;;21.36;61.19;100809.66;20984752;28;20273;-76
2022/11/02 01:53:53;;;;;;;4.00;3.20;;;;;;;21.34;61.31;100806.28;20982779;28;20063;-77
2022/11/02 02:03:56;;;;;;;5.50;3.00;;;;;;;21.34;61.18;100808.91;20984901;28;20124;-76
2022/11/02 02:14:10;;;;;;;4.60;3.40;;;;;;;21.32;61.13;100808.19;21001056;28;20589;-76
2022/11/02 02:24:48;;;;;;;3.88;3.10;;;;;;;21.33;61.40;100823.03;21005470;28;20041;-76
2022/11/02 02:35:26;;;;;;;4.90;3.15;;;;;;;21.31;61.14;100816.19;20965135;28;20052;-77
2022/11/02 02:45:43;;;;;;;3.50;2.95;;;;;;;21.29;61.16;100821.59;20901745;28;20122;-76
2022/11/02 02:55:46;;;;;;;3.63;2.95;;;;;;;21.29;61.05;100837.38;20998835;28;20058;-76
2022/11/02 03:06:08;;;;;;;3.38;2.78;;;;;;;21.27;61.20;100831.38;21001086;28;24143;-75
2022/11/02 03:16:31;;;;;;;3.60;3.00;;;;;;;21.26;61.37;100846.34;20996003;28;20178;-77
2022/11/02 03:26:34;;;;;;;;;;;;;;;21.26;61.18;100859.53;20994353;28;20400;-76
2022/11/02 03:37:04;;;;;;;4.75;3.10;;;;;;;21.26;61.02;100880.59;20995977;28;20005;-75
2022/11/02 03:47:09;;;;;;;3.30;2.70;;;;;;;21.22;61.29;100897.53;20967299;28;20040;-76
2022/11/02 03:57:18;;;;;;;3.95;3.03;;;;;;;21.22;61.17;100888.81;20997478;28;20087;-76
2022/11/02 04:07:24;;;;;;;3.53;2.60;;;;;;;21.21;60.99;100876.59;21000264;28;20080;-76
2022/11/02 04:27:49;;;;;;;3.40;2.83;;;;;;;21.20;60.88;100890.69;20997571;28;20426;-75
2022/11/02 04:48:14;;;;;;;4.35;3.10;;;;;;;21.16;60.98;100911.13;21005913;28;20032;-76
2022/11/02 04:58:14;;;;;;;3.63;2.75;;;;;;;21.15;61.11;100912.06;20998446;28;20040;-75
2022/11/02 05:08:15;;;;;;;3.65;2.70;;;;;;;21.14;61.51;100923.59;21005492;28;20386;-77
2022/11/02 05:18:15;;;;;;;2.97;2.53;;;;;;;21.25;62.03;100922.81;20980286;28;20051;-77
2022/11/02 05:28:16;;;;;;;3.00;2.58;;;;;;;21.34;62.50;100929.25;21009405;28;20392;-78
2022/11/02 05:38:16;;;;;;;9.55;3.20;;;;;;;21.42;62.78;100933.03;21004114;28;20135;-75
2022/11/02 05:48:16;;;;;;;4.80;2.90;;;;;;;21.50;62.61;100942.22;21007104;28;20128;-76
2022/11/02 05:58:17;;;;;;;3.25;2.33;;;;;;;21.55;61.84;100937.44;21018995;28;20061;-77
2022/11/02 06:08:17;;;;;;;13.07;5.38;;;;;;;21.51;59.16;100938.63;20986033;28;20044;-74
2022/11/02 06:18:18;;;;;;;8.90;5.18;;;;;;;21.51;59.18;100925.44;20989150;28;20041;-71
2022/11/02 06:28:21;;;;;;;8.45;4.68;;;;;;;21.58;59.79;100931.97;20979102;28;20044;-72
2022/11/02 06:38:21;;;;;;;7.85;5.03;;;;;;;21.64;59.67;100926.31;20971335;28;20043;-72
2022/11/02 06:48:22;;;;;;;9.70;4.93;;;;;;;21.69;59.85;100928.59;20977641;28;20037;-73
2022/11/02 06:58:23;;;;;;;9.30;4.18;;;;;;;21.75;60.11;100947.47;20981861;28;20032;-72
2022/11/02 07:08:25;;;;;;;8.05;4.60;;;;;;;21.81;60.23;100959.34;20977884;28;20510;-73
2022/11/02 07:18:25;;;;;;;6.05;4.38;;;;;;;21.85;60.06;100962.59;20976944;28;20044;-72
2022/11/02 07:28:25;;;;;;;7.00;4.93;;;;;;;21.90;59.99;100955.22;20970880;27;20438;-73
2022/11/02 07:38:26;;;;;;;7.10;5.32;;;;;;;21.93;60.20;100949.72;20985327;28;20106;-73
2022/11/02 07:48:26;;;;;;;7.65;5.65;;;;;;;21.96;60.04;100967.13;20989844;28;20040;-75
2022/11/02 07:58:27;;;;;;;8.88;6.32;;;;;;;21.99;59.88;100967.72;20992920;28;20048;-75
2022/11/02 08:08:27;;;;;;;9.93;7.13;;;;;;;22.02;59.95;100962.25;20992133;28;20058;-75
2022/11/02 08:18:28;;;;;;;11.43;9.00;;;;;;;22.05;59.57;100967.28;20981208;28;20115;-74
2022/11/02 08:28:34;;;;;;;10.15;7.72;;;;;;;22.09;59.46;100969.72;20980952;28;20407;-73
2022/11/02 08:38:35;;;;;;;10.55;7.88;;;;;;;22.12;59.60;100964.22;20976306;28;20050;-74
2022/11/02 08:48:35;;;;;;;12.48;9.15;;;;;;;22.12;59.36;100957.16;20966800;28;20158;-73
2022/11/02 08:58:41;;;;;;;11.23;9.30;;;;;;;22.16;59.29;100961.25;20975748;28;20053;-83
2022/11/02 09:08:41;;;;;;;12.85;9.02;;;;;;;22.18;59.55;100953.22;20983139;28;20044;-79
2022/11/02 09:18:47;;;;;;;13.05;8.80;;;;;;;22.20;59.23;100944.25;20969027;28;20059;-79
2022/11/02 09:28:51;;;;;;;10.32;8.02;;;;;;;22.21;58.91;100951.19;20988037;28;20047;-81
2022/11/02 09:38:51;;;;;;;13.18;9.18;;;;;;;22.24;58.76;100944.88;20976432;28;20142;-83
2022/11/02 09:48:57;;;;;;;13.00;8.98;;;;;;;22.26;58.65;100935.03;20998312;28;20090;-83
2022/11/02 09:59:25;;;;;;;12.05;8.63;;;;;;;22.33;58.84;100944.19;20980301;28;20279;-80
2022/11/02 10:09:35;;;;;;;14.10;9.05;;;;;;;22.38;58.48;100934.16;20986903;28;20049;-83
2022/11/02 10:19:39;;;;;;;12.32;8.60;;;;;;;22.41;58.74;100934.91;20984781;28;20079;-83
2022/11/02 10:29:55;;;;;;;10.02;8.02;;;;;;;22.46;58.57;100930.97;20993931;28;20036;-83
2022/11/02 10:40:22;;;;;;;11.75;8.20;;;;;;;22.46;58.37;100927.47;20979466;28;20040;-83
2022/11/02 10:50:35;;;;;;;11.10;7.93;;;;;;;22.52;58.09;100916.47;21002372;28;20052;-83
2022/11/02 11:00:36;;;;;;;11.35;8.15;;;;;;;22.48;54.43;100921.13;20991662;28;20414;-82
2022/11/02 11:10:38;;;;;;;19.50;11.95;;;;;;;22.34;52.59;100916.03;20994460;28;20186;-84
2022/11/02 11:20:40;;;;;;;14.90;9.07;;;;;;;22.47;55.03;100918.59;20985817;28;20032;-73
2022/11/02 11:30:40;;;;;;;12.83;8.43;;;;;;;22.51;55.38;100914.81;21003555;28;20067;-75
2022/11/02 11:40:47;;;;;;;10.85;7.45;;;;;;;22.49;55.85;100914.91;20993421;28;20043;-82
2022/11/02 11:50:49;;;;;;;13.02;7.93;;;;;;;22.45;54.80;100917.88;21013526;28;20418;-84
2022/11/02 12:01:11;;;;;;;11.23;7.50;;;;;;;22.45;54.42;100913.44;20996873;28;20127;-84
2022/11/02 12:11:21;;;;;;;10.90;6.70;;;;;;;22.53;54.80;100876.78;20990111;28;20052;-83
2022/11/02 12:21:38;;;;;;;12.93;6.50;;;;;;;22.61;55.81;100864.81;20984928;28;20092;-78
2022/11/02 12:31:49;;;;;;;8.48;6.07;;;;;;;22.59;55.82;100856.97;20993828;28;20062;-79
2022/11/02 12:42:16;;;;;;;10.40;5.90;;;;;;;22.52;55.70;100842.56;20991259;28;20051;-79
2022/11/02 12:52:35;;;;;;;10.35;6.05;;;;;;;22.46;54.89;100846.53;20981558;28;20044;-79
2022/11/02 13:02:58;;;;;;;7.85;5.55;;;;;;;22.39;55.11;100843.50;21008167;28;20056;-78
2022/11/02 13:13:01;;;;;;;9.30;5.47;;;;;;;22.39;54.41;100843.50;20983393;28;21011;-78
2022/11/02 13:23:04;;;;;;;11.10;6.60;;;;;;;22.46;53.53;100840.41;20989216;28;20418;-79
2022/11/02 13:33:26;;;;;;;9.45;6.32;;;;;;;22.49;54.23;100842.81;20987086;28;20145;-80
2022/11/02 13:44:07;;;;;;;11.20;7.07;;;;;;;22.48;53.51;100841.94;20990432;28;20139;-80
2022/11/02 13:54:16;;;;;;;9.15;6.00;;;;;;;22.52;53.20;100850.47;21004204;28;20052;-80
2022/11/02 14:04:18;;;;;;;12.38;6.88;;;;;;;22.51;52.86;100859.38;20987667;28;20070;-78
2022/11/02 14:14:22;;;;;;;;;;;;;;;22.52;53.59;100863.69;20993158;28;20040;-80
2022/11/02 14:24:32;;;;;;;7.85;4.75;;;;;;;22.48;52.66;100851.69;20995529;28;19966;-79
2022/11/02 14:35:06;;;;;;;7.28;3.90;;;;;;;22.36;52.38;100861.31;21004049;28;20040;-78
2022/11/02 14:45:40;;;;;;;4.50;3.67;;;;;;;22.29;51.68;100863.59;21011891;27;20070;-79
2022/11/02 14:55:52;;;;;;;8.82;3.42;;;;;;;22.22;51.05;100872.91;20988424;28;20048;-84
2022/11/02 15:06:04;;;;;;;5.70;3.67;;;;;;;22.17;51.40;100873.25;20983855;28;20124;-78
2022/11/02 15:16:10;;;;;;;6.03;3.50;;;;;;;22.12;50.44;100879.81;20985701;28;20134;-80
2022/11/02 15:26:23;;;;;;;6.80;3.38;;;;;;;22.04;50.46;100883.03;21009448;28;20041;-83
2022/11/02 15:36:32;;;;;;;;;;;;;;;22.00;51.08;100894.75;20988775;28;20541;-83
2022/11/02 15:47:00;;;;;;;5.10;3.25;;;;;;;21.96;50.78;100901.19;20982103;28;20476;-83
2022/11/02 15:57:27;;;;;;;7.25;3.42;;;;;;;21.93;51.11;100890.88;20979321;28;20071;-83
2022/11/02 16:07:29;;;;;;;4.32;3.40;;;;;;;21.89;50.30;100893.72;20975598;28;20052;-79
2022/11/02 16:17:30;;;;;;;5.88;4.00;;;;;;;21.87;50.59;100898.28;20988736;28;20531;-79
2022/11/02 16:27:38;;;;;;;7.22;3.85;;;;;;;21.70;48.59;100894.22;20986284;28;20032;-79
2022/11/02 16:37:39;;;;;;;9.20;3.80;;;;;;;21.75;50.21;100905.28;20983207;28;20598;-78
2022/11/02 16:47:40;;;;;;;6.25;3.85;;;;;;;;;;20986967;28;20059;-79
2022/11/02 16:57:44;;;;;;;6.60;3.80;;;;;;;;;;20991177;28;20155;-78
2022/11/02 17:08:03;;;;;;;4.78;3.30;;;;;;;21.76;52.33;100929.84;21002076;28;20404;-77
2022/11/02 17:18:06;;;;;;;8.85;3.50;;;;;;;21.77;53.27;100933.34;20979906;28;20044;-77
2022/11/02 17:28:31;;;;;;;5.97;3.80;;;;;;;21.79;53.67;100936.69;20985549;28;20045;-76
2022/11/02 17:38:32;;;;;;;6.75;3.80;;;;;;;21.84;54.95;100953.88;20990196;28;20128;-83
2022/11/02 17:48:33;;;;;;;9.57;3.28;;;;;;;21.87;55.39;100951.03;21002312;28;20526;-82
2022/11/02 17:58:33;;;;;;;8.25;3.60;;;;;;;21.93;56.15;100949.72;20979274;28;20041;-76
2022/11/02 18:09:09;;;;;;;11.82;5.00;;;;;;;22.05;58.77;100954.09;20975287;28;20036;-76
2022/11/02 18:18:54;;;;;;;14.70;6.40;;;;;;;22.15;61.20;100958.72;20970993;28;20538;-77
2022/11/02 18:28:56;;;;;;;10.55;6.65;;;;;;;22.21;61.45;100950.38;20966383;28;20039;-82
2022/11/02 18:38:56;;;;;;;11.20;6.10;;;;;;;22.22;60.76;100952.06;20969769;28;20071;-76
2022/11/02 18:48:57;;;;;;;10.65;5.28;;;;;;;22.24;60.39;100950.16;20968921;28;20969;-75
2022/11/02 18:58:58;;;;;;;9.50;5.05;;;;;;;22.27;59.62;100943.81;20985405;28;20044;-76
2022/11/02 19:09:16;;;;;;;6.28;4.45;;;;;;;22.25;59.69;100949.19;20983091;28;20044;-76
2022/11/02 19:19:17;;;;;;;6.40;4.00;;;;;;;22.26;58.96;100945.59;20988842;28;20039;-80
2022/11/02 19:29:18;;;;;;;5.93;3.92;;;;;;;22.27;59.10;100970.19;20988767;28;20406;-76
2022/11/02 19:39:25;;;;;;;5.40;3.83;;;;;;;22.25;59.16;100972.91;20978170;28;21495;-76
2022/11/02 19:49:25;;;;;;;4.97;3.65;;;;;;;22.25;59.37;100969.44;20980754;28;20375;-75
2022/11/02 19:59:26;;;;;;;5.60;3.70;;;;;;;22.23;59.18;100969.56;20989463;28;20040;-75
2022/11/02 20:09:27;;;;;;;4.63;3.28;;;;;;;22.24;58.88;100979.19;20970557;28;20044;-77
2022/11/02 20:19:27;;;;;;;5.10;3.65;;;;;;;22.22;58.69;100975.78;20979141;28;20064;-75
2022/11/02 20:29:28;;;;;;;5.85;3.22;;;;;;;22.20;58.58;100978.56;20984820;28;20040;-75
2022/11/02 20:39:28;;;;;;;6.32;3.55;;;;;;;22.17;58.75;100980.56;20986816;28;20502;-78
2022/11/02 20:49:29;;;;;;;19.35;12.98;;;;;;;22.12;58.29;100975.63;20988080;28;20055;-78
2022/11/02 20:59:29;;;;;;;7.20;4.07;;;;;;;22.11;58.16;100981.00;21003750;27;20512;-76
2022/11/02 21:09:30;;;;;;;6.80;4.30;;;;;;;22.07;58.53;100970.66;21008516;28;20105;-77
2022/11/02 21:19:30;;;;;;;8.48;4.20;;;;;;;22.07;59.05;100960.13;21003681;28;20124;-77
2022/11/02 21:29:30;;;;;;;7.18;4.38;;;;;;;22.04;58.92;100967.41;21011556;28;20059;-77
2022/11/02 21:39:34;;;;;;;8.88;4.70;;;;;;;22.03;58.91;100992.09;20997981;28;20088;-77
2022/11/02 21:49:35;;;;;;;8.43;4.85;;;;;;;22.00;58.75;100989.69;20989096;28;20024;-77
2022/11/02 21:59:35;;;;;;;8.00;4.45;;;;;;;22.00;58.92;100989.69;21002542;28;20079;-77
2022/11/02 22:09:35;;;;;;;5.88;4.25;;;;;;;21.98;58.96;100981.88;20992544;28;20044;-77
2022/11/02 22:19:36;;;;;;;10.20;4.57;;;;;;;21.98;58.73;100986.31;20980391;28;20040;-77
2022/11/02 22:29:36;;;;;;;7.28;4.47;;;;;;;21.95;59.12;100992.66;20990204;28;20040;-77
2022/11/02 22:39:38;;;;;;;5.25;4.13;;;;;;;21.93;59.03;100999.00;20995685;28;20041;-77
2022/11/02 22:49:38;;;;;;;5.07;4.22;;;;;;;21.91;59.03;100999.94;21005694;28;20047;-77
2022/11/02 22:59:38;;;;;;;4.57;3.85;;;;;;;21.94;58.55;101012.06;20953891;28;20080;-78
2022/11/02 23:09:39;;;;;;;5.90;3.97;;;;;;;21.94;59.04;101011.22;20980386;28;20040;-76
2022/11/02 23:19:39;;;;;;;5.95;4.13;;;;;;;21.94;59.28;101022.59;21000006;28;20465;-77
2022/11/02 23:39:59;;;;;;;5.47;4.32;;;;;;;21.93;59.21;101039.38;20998998;28;20495;-76
2022/11/02 23:49:59;;;;;;;5.75;3.78;;;;;;;21.92;59.53;101037.69;20991729;28;20046;-77
